Time;durP1;ratioP1;P1;durP2;ratioP2;P2;SDS_P1;SDS_P2;PMS_P1;PMS_P2;Temp;Humidity;BMP_temperature;BMP_pressure;BME280_temperature;BME280_humidity;BME280_pressure;Samples;Min_cycle;Max_cycle;Signal;HPM_P1;HPM_P2
2023/06/18 00:02:05;;;;;;;12.77;10.90;;;14.30;99.20;;;;;;4984647;28;20124;-88
2023/06/18 00:04:31;;;;;;;13.60;10.52;;;14.30;99.50;;;;;;4990899;28;20041;-87
2023/06/18 00:06:57;;;;;;;13.45;10.95;;;14.20;99.10;;;;;;4999545;28;20042;-87
2023/06/18 00:09:23;;;;;;;14.25;11.13;;;14.20;99.60;;;;;;5008128;28;20038;-86
2023/06/18 00:11:50;;;;;;;19.85;13.73;;;14.20;99.30;;;;;;5014386;28;20392;-87
2023/06/18 00:14:19;;;;;;;13.25;11.40;;;14.20;99.50;;;;;;5006041;28;20029;-86
2023/06/18 00:16:45;;;;;;;14.82;11.88;;;14.20;99.90;;;;;;4996412;28;20017;-86
2023/06/18 00:19:11;;;;;;;15.95;12.52;;;14.10;99.90;;;;;;5003063;28;20045;-86
2023/06/18 00:21:37;;;;;;;15.73;11.85;;;14.00;99.90;;;;;;5004455;28;20187;-85
2023/06/18 00:24:03;;;;;;;15.77;12.10;;;14.00;99.90;;;;;;4994851;28;20034;-86
2023/06/18 00:26:29;;;;;;;14.65;11.48;;;14.00;99.90;;;;;;4969700;28;20413;-87
2023/06/18 00:28:55;;;;;;;15.57;12.27;;;13.90;99.90;;;;;;5013265;28;20033;-86
2023/06/18 00:31:21;;;;;;;13.88;11.68;;;13.90;99.90;;;;;;4964693;28;20486;-87
2023/06/18 00:33:47;;;;;;;15.70;12.02;;;13.90;99.90;;;;;;5008229;28;20489;-87
2023/06/18 00:36:13;;;;;;;16.58;12.27;;;13.90;99.90;;;;;;4992453;28;20030;-87
2023/06/18 00:38:43;;;;;;;15.85;12.20;;;13.80;99.90;;;;;;4987595;28;20036;-87
2023/06/18 00:41:09;;;;;;;15.27;12.50;;;13.80;99.90;;;;;;5028068;28;20677;-86
2023/06/18 00:43:36;;;;;;;15.95;12.73;;;13.80;99.90;;;;;;5009742;28;20040;-85
2023/06/18 00:46:05;;;;;;;14.13;11.43;;;13.80;99.90;;;;;;4997952;28;20029;-86
2023/06/18 00:48:31;;;;;;;13.77;11.60;;;13.80;99.90;;;;;;4994878;28;20037;-86
2023/06/18 00:50:59;;;;;;;13.80;11.10;;;13.80;99.90;;;;;;5021849;28;20041;-85
2023/06/18 00:53:25;;;;;;;13.52;10.50;;;13.70;99.90;;;;;;4999482;28;20144;-88
2023/06/18 00:55:52;;;;;;;13.32;11.10;;;13.70;99.90;;;;;;5004275;28;20029;-83
2023/06/18 00:58:23;;;;;;;14.90;12.15;;;13.60;99.90;;;;;;5017364;28;20042;-86
2023/06/18 01:00:50;;;;;;;15.25;11.43;;;13.60;99.90;;;;;;5021621;28;20622;-87
2023/06/18 01:03:21;;;;;;;14.32;12.18;;;13.60;99.90;;;;;;5008146;28;20080;-85
2023/06/18 01:05:51;;;;;;;15.70;10.25;;;13.50;99.90;;;;;;5009129;28;20743;-88
2023/06/18 01:08:23;;;;;;;14.93;10.75;;;13.50;99.90;;;;;;4982424;28;20502;-86
2023/06/18 01:11:03;;;;;;;15.07;11.07;;;13.50;99.90;;;;;;4984786;28;21223;-88
2023/06/18 01:13:36;;;;;;;13.82;10.77;;;13.50;99.90;;;;;;5026697;28;20060;-85
2023/06/18 01:16:07;;;;;;;13.63;11.02;;;13.40;99.90;;;;;;5021681;28;20025;-87
2023/06/18 01:18:36;;;;;;;13.80;11.10;;;13.30;99.90;;;;;;5005579;28;20121;-87
2023/06/18 01:21:09;;;;;;;12.95;11.10;;;13.30;99.90;;;;;;5011921;28;20115;-86
2023/06/18 01:23:58;;;;;;;14.85;10.93;;;13.20;99.90;;;;;;5005314;28;20030;-88
2023/06/18 01:26:26;;;;;;;13.68;10.90;;;13.20;99.90;;;;;;5005054;28;20116;-86
2023/06/18 01:28:53;;;;;;;15.13;11.30;;;13.10;99.90;;;;;;5019455;28;20485;-87
2023/06/18 01:31:23;;;;;;;15.68;11.60;;;13.10;99.90;;;;;;5015067;28;20034;-85
2023/06/18 01:33:53;;;;;;;13.77;11.15;;;13.00;99.90;;;;;;5017817;28;20486;-86
2023/06/18 01:36:47;;;;;;;14.18;11.25;;;13.00;99.90;;;;;;5011928;28;20045;-86
2023/06/18 01:39:42;;;;;;;16.15;12.48;;;13.00;99.90;;;;;;5002745;28;20062;-86
2023/06/18 01:42:18;;;;;;;16.30;11.13;;;13.00;99.90;;;;;;4989229;28;20564;-86
2023/06/18 01:44:52;;;;;;;14.45;11.82;;;13.00;99.90;;;;;;5003336;28;20033;-85
2023/06/18 01:47:20;;;;;;;17.45;12.63;;;12.90;99.90;;;;;;5020757;28;20284;-85
2023/06/18 01:49:47;;;;;;;15.80;12.82;;;12.90;99.90;;;;;;5003933;28;20098;-85
2023/06/18 01:52:16;;;;;;;14.35;11.45;;;12.90;99.90;;;;;;4982750;28;20059;-88
2023/06/18 01:54:47;;;;;;;16.02;11.82;;;12.80;99.90;;;;;;5027524;28;20034;-87
2023/06/18 01:57:14;;;;;;;16.30;11.77;;;12.80;99.90;;;;;;5003461;28;20533;-86
2023/06/18 01:59:41;;;;;;;16.85;12.35;;;12.70;99.90;;;;;;4998755;28;20124;-85
2023/06/18 02:02:07;;;;;;;16.45;12.38;;;12.70;99.90;;;;;;5005145;28;20564;-87
2023/06/18 02:04:33;;;;;;;15.93;12.38;;;12.70;99.90;;;;;;4967585;28;20029;-86
2023/06/18 02:07:00;;;;;;;17.65;12.20;;;12.70;99.90;;;;;;5007888;28;20116;-86
2023/06/18 02:09:25;;;;;;;13.70;11.45;;;12.70;99.90;;;;;;4975619;28;20136;-88
2023/06/18 02:11:51;;;;;;;15.68;11.48;;;12.60;99.90;;;;;;5004532;28;20114;-87
2023/06/18 02:14:17;;;;;;;12.80;10.68;;;12.60;99.90;;;;;;5008682;28;20034;-87
2023/06/18 02:16:43;;;;;;;13.30;11.43;;;12.60;99.90;;;;;;5023967;28;20037;-87
2023/06/18 02:19:09;;;;;;;13.70;10.70;;;12.60;99.90;;;;;;5002337;28;20066;-87
2023/06/18 02:21:35;;;;;;;14.85;11.77;;;12.60;99.90;;;;;;4976678;28;20025;-85
2023/06/18 02:24:01;;;;;;;14.60;11.88;;;12.50;99.90;;;;;;4980963;28;20037;-85
2023/06/18 02:26:27;;;;;;;13.00;11.52;;;12.50;99.90;;;;;;5003784;28;20038;-86
2023/06/18 02:28:53;;;;;;;15.38;11.35;;;12.50;99.90;;;;;;4986936;28;20025;-85
2023/06/18 02:31:19;;;;;;;14.07;10.77;;;12.50;99.90;;;;;;5003676;28;20128;-86
2023/06/18 02:33:44;;;;;;;17.55;12.05;;;12.50;99.90;;;;;;5011423;28;20034;-87
2023/06/18 02:36:10;;;;;;;14.85;11.57;;;12.40;99.90;;;;;;5006889;28;20041;-86
2023/06/18 02:38:39;;;;;;;13.77;11.68;;;12.40;99.90;;;;;;5013498;28;20026;-87
2023/06/18 02:41:06;;;;;;;16.98;11.98;;;12.40;99.90;;;;;;4992209;28;20034;-87
2023/06/18 02:43:32;;;;;;;15.00;12.32;;;12.30;99.90;;;;;;5003933;28;20100;-86
2023/06/18 02:45:59;;;;;;;19.20;13.25;;;12.30;99.90;;;;;;4998710;28;20044;-86
2023/06/18 02:48:25;;;;;;;16.00;12.32;;;12.30;99.90;;;;;;4987441;28;20046;-87
2023/06/18 02:50:51;;;;;;;15.20;12.20;;;12.20;99.90;;;;;;4990188;28;20091;-86
2023/06/18 02:53:17;;;;;;;16.63;12.55;;;12.20;99.90;;;;;;4985705;28;20068;-87
2023/06/18 02:55:43;;;;;;;15.55;12.75;;;12.20;99.90;;;;;;5005087;28;20048;-86
2023/06/18 02:58:27;;;;;;;15.82;12.77;;;12.10;99.90;;;;;;5004004;28;20506;-89
2023/06/18 03:01:02;;;;;;;16.70;13.33;;;12.10;99.90;;;;;;4993018;28;20682;-86
2023/06/18 03:03:34;;;;;;;17.15;13.30;;;12.10;99.90;;;;;;5020464;28;20038;-85
2023/06/18 03:06:00;;;;;;;16.95;13.20;;;12.10;99.90;;;;;;5005544;28;20038;-87
2023/06/18 03:08:26;;;;;;;15.02;12.52;;;12.10;99.90;;;;;;4997454;28;20037;-87
2023/06/18 03:10:54;;;;;;;16.40;12.35;;;12.10;99.90;;;;;;4984105;28;20124;-87
2023/06/18 03:13:20;;;;;;;17.27;13.50;;;12.10;99.90;;;;;;5006366;28;20121;-86
2023/06/18 03:15:49;;;;;;;15.93;12.85;;;12.10;99.90;;;;;;4998363;28;20494;-86
2023/06/18 03:18:15;;;;;;;15.50;12.75;;;12.10;99.90;;;;;;5005879;28;20613;-87
2023/06/18 03:20:45;;;;;;;19.25;13.20;;;12.10;99.90;;;;;;5008058;28;20040;-86
2023/06/18 03:23:10;;;;;;;15.40;11.98;;;12.10;99.90;;;;;;4995562;28;20029;-85
2023/06/18 03:25:39;;;;;;;16.13;12.02;;;12.00;99.90;;;;;;4982922;28;20034;-87
2023/06/18 03:28:08;;;;;;;14.57;12.18;;;12.00;99.90;;;;;;5003215;28;20091;-87
2023/06/18 03:30:38;;;;;;;17.08;12.70;;;12.10;99.90;;;;;;5005071;28;20058;-86
2023/06/18 03:33:04;;;;;;;14.77;12.35;;;12.00;99.90;;;;;;5010010;28;20132;-88
2023/06/18 03:35:32;;;;;;;16.08;12.32;;;12.10;99.90;;;;;;4982649;28;20056;-89
2023/06/18 03:37:58;;;;;;;15.85;12.30;;;12.10;99.90;;;;;;4999886;28;20097;-85
2023/06/18 03:40:24;;;;;;;15.10;13.02;;;12.00;99.90;;;;;;5005368;28;20037;-86
2023/06/18 03:42:50;;;;;;;15.65;12.23;;;12.10;99.90;;;;;;5003988;28;20124;-86
2023/06/18 03:45:21;;;;;;;13.05;10.65;;;12.10;99.90;;;;;;4976522;28;20037;-85
2023/06/18 03:47:47;;;;;;;14.82;12.30;;;12.00;99.90;;;;;;4996896;28;20042;-86
2023/06/18 03:50:13;;;;;;;15.20;11.40;;;12.10;99.90;;;;;;5025002;28;20034;-86
2023/06/18 03:52:39;;;;;;;16.40;11.85;;;12.10;99.90;;;;;;5000229;28;20504;-87
2023/06/18 03:55:06;;;;;;;15.57;12.00;;;12.10;99.90;;;;;;4996731;28;20533;-87
2023/06/18 03:57:32;;;;;;;13.60;11.20;;;12.10;99.90;;;;;;5004113;28;20033;-86
2023/06/18 03:59:59;;;;;;;14.90;12.45;;;12.10;99.90;;;;;;4998509;28;20033;-87
2023/06/18 04:02:25;;;;;;;14.30;10.85;;;12.10;99.90;;;;;;5003830;28;20037;-85
2023/06/18 04:04:51;;;;;;;16.80;12.02;;;12.20;99.90;;;;;;4980727;28;20048;-86
2023/06/18 04:07:16;;;;;;;16.63;13.27;;;12.20;99.90;;;;;;4985384;28;20048;-87
2023/06/18 04:09:42;;;;;;;15.13;12.15;;;12.30;99.90;;;;;;4982025;28;20034;-86
2023/06/18 04:12:09;;;;;;;14.73;12.57;;;12.30;99.90;;;;;;5005381;28;20129;-86
2023/06/18 04:14:35;;;;;;;12.75;11.35;;;12.40;99.90;;;;;;5008615;28;20025;-88
2023/06/18 04:17:19;;;;;;;12.35;9.70;;;12.40;99.90;;;;;;5009773;28;20056;-85
2023/06/18 04:19:45;;;;;;;13.13;10.48;;;12.50;99.90;;;;;;4983499;28;20033;-87
2023/06/18 04:22:12;;;;;;;12.18;10.20;;;12.60;99.90;;;;;;5002258;28;20053;-89
2023/06/18 04:24:41;;;;;;;14.30;9.27;;;12.70;99.90;;;;;;4986404;28;20486;-88
2023/06/18 04:27:07;;;;;;;11.15;9.40;;;12.70;99.90;;;;;;5007843;28;20053;-86
2023/06/18 04:29:35;;;;;;;15.45;10.57;;;12.70;99.90;;;;;;5005511;28;20033;-85
2023/06/18 04:32:02;;;;;;;11.52;10.15;;;12.80;99.90;;;;;;4996252;28;20026;-87
2023/06/18 04:34:28;;;;;;;11.63;10.10;;;12.80;99.90;;;;;;5007895;28;20029;-86
2023/06/18 04:36:54;;;;;;;12.63;10.05;;;12.80;99.90;;;;;;4995346;28;20034;-87
2023/06/18 04:39:20;;;;;;;12.18;10.10;;;12.90;99.90;;;;;;5009021;28;20030;-86
2023/06/18 04:41:46;;;;;;;12.18;10.23;;;12.90;99.90;;;;;;4983350;28;20057;-87
2023/06/18 04:44:13;;;;;;;12.05;10.15;;;13.00;99.90;;;;;;4988317;28;20037;-86
2023/06/18 04:46:42;;;;;;;12.63;10.50;;;13.00;99.90;;;;;;5005943;28;20484;-86
2023/06/18 04:49:08;;;;;;;12.80;10.77;;;13.10;99.90;;;;;;5014848;28;20029;-87
2023/06/18 04:51:34;;;;;;;13.85;11.27;;;13.10;99.90;;;;;;5012149;28;20044;-87
2023/06/18 04:54:01;;;;;;;14.13;10.80;;;13.20;99.90;;;;;;4966300;28;20028;-86
2023/06/18 04:56:28;;;;;;;16.33;11.73;;;13.30;99.90;;;;;;5011407;28;20026;-85
2023/06/18 04:58:54;;;;;;;13.45;11.20;;;13.30;99.90;;;;;;4993131;28;20608;-86
2023/06/18 05:01:20;;;;;;;14.52;12.27;;;13.40;99.90;;;;;;4997061;28;20124;-86
2023/06/18 05:03:46;;;;;;;16.48;12.77;;;13.50;99.90;;;;;;5012236;28;20064;-86
2023/06/18 05:06:12;;;;;;;14.77;12.38;;;13.50;99.90;;;;;;5022042;28;20036;-87
2023/06/18 05:08:39;;;;;;;16.63;12.65;;;13.60;99.90;;;;;;5001025;28;20045;-87
2023/06/18 05:11:05;;;;;;;14.43;12.07;;;13.70;99.90;;;;;;5020330;28;20116;-85
2023/06/18 05:13:33;;;;;;;15.40;13.23;;;13.80;99.90;;;;;;5003273;28;20041;-87
2023/06/18 05:16:02;;;;;;;16.35;11.73;;;13.80;99.90;;;;;;5024458;28;20037;-85
2023/06/18 05:18:28;;;;;;;14.52;11.55;;;14.00;99.90;;;;;;4986981;28;20064;-87
2023/06/18 05:20:54;;;;;;;16.33;13.07;;;14.20;99.90;;;;;;5009709;28;20090;-87
2023/06/18 05:23:22;;;;;;;14.55;12.52;;;14.30;99.90;;;;;;5012367;28;20065;-86
2023/06/18 05:25:49;;;;;;;16.80;13.40;;;14.50;99.90;;;;;;5002507;28;20060;-88
2023/06/18 05:28:15;;;;;;;15.70;13.20;;;14.60;99.90;;;;;;4977755;28;20105;-87
2023/06/18 05:30:44;;;;;;;17.75;13.13;;;14.80;99.90;;;;;;5001324;28;20030;-87
2023/06/18 05:33:10;;;;;;;13.60;11.20;;;15.00;99.90;;;;;;5006032;28;20678;-86
2023/06/18 05:35:37;;;;;;;15.07;11.57;;;15.30;99.90;;;;;;5003601;28;20030;-88
2023/06/18 05:38:03;;;;;;;14.15;12.20;;;15.80;99.90;;;;;;5025120;28;20175;-88
2023/06/18 05:40:28;;;;;;;14.85;11.55;;;16.30;99.90;;;;;;4970364;28;20044;-86
2023/06/18 05:42:58;;;;;;;12.00;10.70;;;16.90;99.90;;;;;;5002214;28;20041;-86
2023/06/18 05:45:25;;;;;;;13.13;11.10;;;17.40;99.90;;;;;;5012495;28;20040;-88
2023/06/18 05:47:51;;;;;;;12.85;10.98;;;17.70;99.90;;;;;;4987942;28;20038;-87
2023/06/18 05:50:27;;;;;;;13.48;10.98;;;18.10;99.90;;;;;;4995383;28;20528;-87
2023/06/18 05:52:53;;;;;;;11.98;9.85;;;18.50;99.90;;;;;;4996449;28;20025;-87
2023/06/18 05:55:19;;;;;;;14.00;10.88;;;19.00;99.90;;;;;;5008927;28;20234;-87
2023/06/18 05:57:46;;;;;;;12.27;10.98;;;19.40;99.90;;;;;;5007442;28;20057;-87
2023/06/18 06:00:13;;;;;;;11.88;9.73;;;19.80;99.90;;;;;;5014356;28;20034;-86
2023/06/18 06:02:43;;;;;;;11.70;10.13;;;20.30;99.90;;;;;;5000195;28;20045;-86
2023/06/18 06:05:16;;;;;;;12.00;10.50;;;20.70;99.90;;;;;;4984797;28;20626;-87
2023/06/18 06:07:42;;;;;;;12.07;10.52;;;20.90;99.90;;;;;;5023419;28;20068;-86
2023/06/18 06:10:11;;;;;;;12.68;11.07;;;21.00;99.00;;;;;;5013583;28;20443;-86
2023/06/18 06:12:37;;;;;;;14.23;10.93;;;21.10;97.60;;;;;;5004530;28;20022;-87
2023/06/18 06:15:04;;;;;;;13.25;11.13;;;20.90;97.20;;;;;;5010448;28;20634;-88
2023/06/18 06:17:30;;;;;;;11.15;9.98;;;21.30;97.40;;;;;;4980571;28;20079;-86
2023/06/18 06:19:56;;;;;;;12.70;9.75;;;21.50;95.80;;;;;;4999978;28;20042;-86
2023/06/18 06:22:22;;;;;;;14.32;9.98;;;21.70;95.40;;;;;;5012133;28;20025;-87
2023/06/18 06:24:48;;;;;;;11.18;9.82;;;21.80;96.00;;;;;;4979340;28;20032;-89
2023/06/18 06:27:13;;;;;;;11.48;9.65;;;22.10;92.80;;;;;;5015538;28;20045;-86
2023/06/18 06:29:40;;;;;;;10.68;9.57;;;22.20;93.00;;;;;;5011747;28;20022;-86
2023/06/18 06:32:06;;;;;;;10.30;9.10;;;22.30;90.90;;;;;;4998307;28;20045;-86
2023/06/18 06:34:32;;;;;;;12.85;10.93;;;22.30;91.90;;;;;;5015623;28;20128;-86
2023/06/18 06:36:58;;;;;;;11.38;8.85;;;22.40;91.00;;;;;;5014985;28;20413;-86
2023/06/18 06:39:24;;;;;;;11.82;9.02;;;23.00;90.70;;;;;;5016092;28;20037;-86
2023/06/18 06:41:51;;;;;;;9.88;8.55;;;23.60;87.60;;;;;;5013897;28;20042;-87
2023/06/18 06:44:17;;;;;;;9.95;8.50;;;24.00;81.10;;;;;;5013590;28;20152;-90
2023/06/18 06:46:51;;;;;;;12.35;9.52;;;24.30;82.80;;;;;;5008615;28;20130;-86
2023/06/18 06:49:45;;;;;;;11.40;8.13;;;24.60;81.40;;;;;;4993287;28;20042;-87
2023/06/18 06:52:42;;;;;;;9.95;8.57;;;24.80;80.10;;;;;;5013694;28;20037;-86
2023/06/18 06:55:08;;;;;;;10.13;9.13;;;25.00;73.70;;;;;;5000871;28;20026;-85
2023/06/18 06:57:34;;;;;;;9.65;8.75;;;24.80;76.30;;;;;;5015597;28;20049;-86
2023/06/18 07:00:00;;;;;;;9.23;8.32;;;25.20;76.80;;;;;;5009546;28;20036;-86
2023/06/18 07:02:25;;;;;;;10.65;9.35;;;25.70;76.00;;;;;;5026009;28;20228;-85
2023/06/18 07:04:51;;;;;;;9.60;8.65;;;26.10;73.00;;;;;;4995776;28;20601;-86
2023/06/18 07:07:17;;;;;;;11.02;7.90;;;26.20;68.20;;;;;;5023560;28;20037;-88
2023/06/18 07:09:43;;;;;;;12.52;9.18;;;26.40;71.70;;;;;;5020306;28;20589;-85
2023/06/18 07:12:10;;;;;;;8.38;7.57;;;26.60;66.90;;;;;;5020112;28;20081;-86
2023/06/18 07:14:36;;;;;;;10.73;9.55;;;26.80;69.50;;;;;;5001599;28;20172;-87
2023/06/18 07:17:02;;;;;;;9.30;7.97;;;27.00;65.40;;;;;;4998223;28;20029;-86
2023/06/18 07:19:32;;;;;;;10.10;8.95;;;27.40;63.70;;;;;;5006912;28;20034;-87
2023/06/18 07:21:59;;;;;;;9.45;8.45;;;27.30;65.40;;;;;;5010800;28;20083;-85
2023/06/18 07:24:25;;;;;;;8.27;7.47;;;27.00;63.60;;;;;;5011944;28;20034;-86
2023/06/18 07:26:51;;;;;;;9.55;8.57;;;27.30;64.50;;;;;;4991537;28;20032;-87
2023/06/18 07:29:16;;;;;;;8.30;7.50;;;27.70;61.50;;;;;;5008908;28;20107;-88
2023/06/18 07:31:42;;;;;;;8.65;7.85;;;28.00;58.30;;;;;;5019014;28;20057;-84
2023/06/18 07:34:08;;;;;;;9.23;8.30;;;27.80;57.00;;;;;;4976170;28;20045;-86
2023/06/18 07:36:34;;;;;;;8.25;7.45;;;27.70;60.00;;;;;;5027519;28;20080;-88
2023/06/18 07:39:00;;;;;;;7.68;6.97;;;27.90;59.90;;;;;;4994332;28;20022;-88
2023/06/18 07:41:26;;;;;;;9.32;8.43;;;28.40;60.00;;;;;;4999624;28;20030;-87
2023/06/18 07:43:54;;;;;;;8.20;7.10;;;28.70;57.90;;;;;;5005281;28;20455;-85
2023/06/18 07:46:20;;;;;;;8.85;7.95;;;28.90;57.60;;;;;;4986883;28;20026;-88
2023/06/18 07:48:46;;;;;;;8.05;7.25;;;29.10;55.20;;;;;;4993948;28;20041;-86
2023/06/18 07:51:12;;;;;;;9.18;8.02;;;29.00;56.50;;;;;;5018028;28;20048;-87
2023/06/18 07:53:39;;;;;;;9.75;8.23;;;28.50;54.60;;;;;;5008935;28;20413;-87
2023/06/18 07:56:05;;;;;;;8.77;7.95;;;28.00;56.00;;;;;;5001802;28;20782;-86
2023/06/18 07:58:31;;;;;;;9.88;8.88;;;27.70;58.40;;;;;;4984644;28;20107;-86
2023/06/18 08:00:57;;;;;;;9.88;8.18;;;27.60;57.40;;;;;;4988555;28;20041;-87
2023/06/18 08:03:22;;;;;;;9.05;8.15;;;27.40;57.70;;;;;;4996781;28;20302;-85
2023/06/18 08:05:48;;;;;;;8.82;7.95;;;27.10;58.00;;;;;;4986275;28;20042;-86
2023/06/18 08:08:15;;;;;;;8.18;7.30;;;26.70;59.50;;;;;;5003790;28;20038;-87
2023/06/18 08:10:41;;;;;;;8.27;7.47;;;26.50;58.20;;;;;;4979886;28;20048;-88
2023/06/18 08:13:06;;;;;;;9.13;6.65;;;26.30;60.00;;;;;;5006699;28;20052;-87
2023/06/18 08:15:32;;;;;;;8.57;7.28;;;26.30;63.10;;;;;;5006787;28;20403;-86
2023/06/18 08:17:58;;;;;;;10.43;6.75;;;26.30;58.60;;;;;;5001687;28;20100;-87
2023/06/18 08:20:23;;;;;;;7.63;6.93;;;26.20;56.50;;;;;;4987205;28;20037;-88
2023/06/18 08:22:50;;;;;;;8.07;6.45;;;26.50;56.60;;;;;;5011801;28;20038;-87
2023/06/18 08:25:15;;;;;;;6.78;6.18;;;26.60;55.50;;;;;;5004241;28;20632;-88
2023/06/18 08:27:41;;;;;;;7.30;6.60;;;26.90;54.00;;;;;;4998969;28;20033;-87
2023/06/18 08:30:07;;;;;;;7.30;6.57;;;27.20;55.70;;;;;;5008309;28;20042;-88
2023/06/18 08:32:33;;;;;;;7.20;6.50;;;27.60;55.30;;;;;;5026965;28;20116;-86
2023/06/18 08:35:01;;;;;;;7.97;7.25;;;28.00;55.40;;;;;;5029109;28;20025;-86
2023/06/18 08:37:26;;;;;;;8.95;7.75;;;28.40;53.20;;;;;;4978058;28;20402;-87
2023/06/18 08:39:52;;;;;;;8.95;6.70;;;28.50;52.50;;;;;;5000283;28;20026;-86
2023/06/18 08:42:21;;;;;;;8.35;6.53;;;28.40;54.80;;;;;;5009398;28;20067;-87
2023/06/18 08:44:47;;;;;;;7.00;6.25;;;29.00;51.50;;;;;;4999785;28;20454;-87
2023/06/18 08:47:15;;;;;;;6.75;6.03;;;29.30;49.30;;;;;;5005507;28;20168;-88
2023/06/18 08:49:42;;;;;;;6.88;6.20;;;29.80;48.60;;;;;;4987335;28;20513;-88
2023/06/18 08:52:09;;;;;;;6.45;5.75;;;29.80;46.00;;;;;;5013381;28;20084;-88
2023/06/18 08:54:37;;;;;;;7.10;6.25;;;29.70;45.00;;;;;;4993299;28;20022;-86
2023/06/18 08:57:28;;;;;;;6.13;5.63;;;29.40;46.80;;;;;;4999943;28;20673;-86
2023/06/18 08:59:57;;;;;;;6.35;5.75;;;29.20;47.20;;;;;;5006110;28;20070;-87
2023/06/18 09:02:24;;;;;;;6.93;5.82;;;28.80;47.70;;;;;;5007547;28;20603;-87
2023/06/18 09:04:51;;;;;;;7.95;6.50;;;28.60;47.00;;;;;;4998739;28;20032;-87
2023/06/18 09:07:19;;;;;;;5.65;5.15;;;28.30;46.20;;;;;;5000429;28;20029;-87
2023/06/18 09:09:46;;;;;;;5.97;5.38;;;27.90;45.10;;;;;;4997526;28;20024;-86
2023/06/18 09:12:12;;;;;;;7.15;5.78;;;27.50;46.90;;;;;;5003305;28;20028;-88
2023/06/18 09:14:38;;;;;;;5.82;5.32;;;27.10;50.80;;;;;;5006097;28;20251;-87
2023/06/18 09:17:04;;;;;;;6.78;6.07;;;26.70;48.80;;;;;;5027955;28;20025;-87
2023/06/18 09:19:32;;;;;;;6.03;5.43;;;26.50;52.50;;;;;;5015791;28;20025;-87
2023/06/18 09:22:15;;;;;;;7.63;5.90;;;26.40;50.20;;;;;;5005903;28;20481;-88
2023/06/18 09:24:44;;;;;;;7.22;6.43;;;26.20;50.00;;;;;;5011517;28;20638;-88
2023/06/18 09:27:11;;;;;;;6.97;6.13;;;26.00;50.00;;;;;;5003009;28;20038;-89
2023/06/18 09:29:38;;;;;;;6.50;5.90;;;25.90;51.50;;;;;;5004852;28;20029;-87
2023/06/18 09:32:13;;;;;;;6.47;5.85;;;25.90;51.60;;;;;;5023251;28;20033;-86
2023/06/18 09:34:40;;;;;;;7.07;5.90;;;25.90;50.60;;;;;;5020195;28;20504;-88
2023/06/18 09:37:08;;;;;;;6.60;5.90;;;25.80;51.70;;;;;;5008330;28;20048;-88
2023/06/18 09:39:40;;;;;;;6.38;5.78;;;25.90;51.80;;;;;;4989033;28;20034;-86
2023/06/18 09:42:09;;;;;;;7.13;6.35;;;26.00;51.70;;;;;;5020249;28;20449;-87
2023/06/18 09:44:35;;;;;;;8.82;6.10;;;26.10;54.70;;;;;;5011782;28;20465;-86
2023/06/18 09:47:03;;;;;;;6.45;5.72;;;26.10;54.00;;;;;;5000133;28;20091;-87
2023/06/18 09:49:30;;;;;;;7.10;6.35;;;26.20;54.80;;;;;;5021052;28;20068;-87
2023/06/18 09:51:56;;;;;;;6.72;6.13;;;26.00;50.40;;;;;;5009360;28;20030;-87
2023/06/18 09:54:23;;;;;;;6.82;6.15;;;25.90;52.00;;;;;;5013122;28;20030;-88
2023/06/18 09:57:16;;;;;;;7.15;5.88;;;25.80;53.20;;;;;;5009882;28;20029;-88
2023/06/18 09:59:41;;;;;;;6.28;5.68;;;25.90;51.20;;;;;;5010178;28;20034;-87
2023/06/18 10:02:17;;;;;;;6.35;5.75;;;25.80;54.90;;;;;;5016291;28;20022;-86
2023/06/18 10:04:43;;;;;;;7.72;5.57;;;25.90;52.70;;;;;;5006026;28;20101;-87
2023/06/18 10:07:15;;;;;;;6.80;6.07;;;25.90;52.10;;;;;;4998989;28;20111;-86
2023/06/18 10:09:44;;;;;;;6.05;5.45;;;25.90;52.00;;;;;;5031865;28;20029;-88
2023/06/18 10:12:15;;;;;;;8.45;6.35;;;25.90;51.40;;;;;;5016008;28;20022;-87
2023/06/18 10:14:41;;;;;;;7.10;6.40;;;25.80;51.90;;;;;;5012509;28;20030;-85
2023/06/18 10:17:18;;;;;;;6.35;5.75;;;25.90;51.80;;;;;;5006083;28;20053;-86
2023/06/18 10:19:57;;;;;;;6.25;5.65;;;25.90;52.50;;;;;;5015931;28;20051;-86
2023/06/18 10:22:28;;;;;;;6.50;5.90;;;25.90;49.80;;;;;;5011673;28;20064;-86
2023/06/18 10:25:06;;;;;;;7.07;5.70;;;25.80;51.10;;;;;;5001015;28;20485;-86
2023/06/18 10:27:34;;;;;;;6.95;6.15;;;25.80;52.30;;;;;;5018858;28;20052;-87
2023/06/18 10:30:00;;;;;;;6.25;5.65;;;25.90;53.30;;;;;;5005673;28;20103;-86
2023/06/18 10:32:28;;;;;;;7.28;6.13;;;26.00;51.80;;;;;;5012713;28;20041;-86
2023/06/18 10:34:58;;;;;;;6.55;5.28;;;26.00;52.40;;;;;;5007703;28;20022;-87
2023/06/18 10:37:26;;;;;;;6.72;5.85;;;26.10;52.30;;;;;;5012264;28;20479;-86
2023/06/18 10:39:53;;;;;;;7.35;5.90;;;26.20;53.30;;;;;;4996166;28;20068;-86
2023/06/18 10:42:20;;;;;;;6.75;6.13;;;26.20;50.50;;;;;;4994072;28;20048;-87
2023/06/18 10:44:58;;;;;;;6.43;5.75;;;26.30;49.70;;;;;;5000616;28;20034;-86
2023/06/18 10:47:28;;;;;;;6.80;6.10;;;26.30;51.60;;;;;;4995982;28;20030;-88
2023/06/18 10:50:03;;;;;;;8.48;6.40;;;26.30;49.90;;;;;;4982996;28;20509;-86
2023/06/18 10:52:37;;;;;;;10.10;5.78;;;26.50;50.10;;;;;;4997880;28;20437;-88
2023/06/18 10:55:18;;;;;;;9.07;5.93;;;26.50;51.00;;;;;;5031233;28;20029;-89
2023/06/18 10:57:57;;;;;;;6.85;6.13;;;26.70;50.30;;;;;;5010824;28;20052;-87
2023/06/18 11:00:33;;;;;;;6.78;6.10;;;26.80;51.10;;;;;;5012537;28;20026;-87
2023/06/18 11:03:02;;;;;;;7.38;6.25;;;26.70;52.60;;;;;;4995617;28;20037;-86
2023/06/18 11:05:36;;;;;;;7.20;6.18;;;26.70;53.90;;;;;;5003819;28;20033;-87
2023/06/18 11:08:05;;;;;;;7.50;6.00;;;26.70;54.20;;;;;;5007225;28;20026;-87
2023/06/18 11:10:47;;;;;;;7.18;6.47;;;26.70;52.10;;;;;;5002721;28;20463;-88
2023/06/18 11:13:13;;;;;;;7.20;6.47;;;26.60;49.30;;;;;;5010011;28;20057;-88
2023/06/18 11:15:54;;;;;;;7.10;6.40;;;26.50;49.30;;;;;;5007176;28;20554;-87
2023/06/18 11:18:25;;;;;;;10.63;6.88;;;26.50;48.80;;;;;;5004073;28;20029;-88
2023/06/18 11:20:52;;;;;;;7.72;6.88;;;26.40;50.30;;;;;;5019779;28;20726;-87
2023/06/18 11:23:18;;;;;;;7.43;6.57;;;26.20;48.90;;;;;;5014169;28;20029;-88
2023/06/18 11:25:46;;;;;;;8.38;7.13;;;26.10;49.20;;;;;;5006295;28;20045;-86
2023/06/18 11:28:13;;;;;;;7.13;6.00;;;26.10;50.40;;;;;;5013740;28;20056;-87
2023/06/18 11:30:46;;;;;;;7.20;6.03;;;26.00;52.70;;;;;;4992431;28;20648;-87
2023/06/18 11:33:11;;;;;;;6.95;6.25;;;26.20;52.10;;;;;;5010957;28;20121;-86
2023/06/18 11:35:37;;;;;;;7.10;6.40;;;26.30;49.60;;;;;;4987827;28;20628;-86
2023/06/18 11:38:04;;;;;;;8.35;6.22;;;26.50;51.70;;;;;;4997684;28;20128;-87
2023/06/18 11:40:30;;;;;;;7.10;6.40;;;26.60;49.70;;;;;;5004439;28;20101;-87
2023/06/18 11:42:56;;;;;;;7.40;6.32;;;26.70;50.00;;;;;;4994935;28;20084;-88
2023/06/18 11:45:22;;;;;;;7.72;7.00;;;26.80;49.80;;;;;;4979469;28;20041;-87
2023/06/18 11:47:50;;;;;;;6.70;6.10;;;26.80;49.40;;;;;;5007646;28;20033;-86
2023/06/18 11:50:19;;;;;;;10.02;6.82;;;27.00;54.10;;;;;;5010909;28;20060;-87
2023/06/18 11:52:45;;;;;;;7.03;5.82;;;27.20;55.00;;;;;;5004410;28;20093;-86
2023/06/18 11:55:11;;;;;;;6.40;5.80;;;27.50;55.30;;;;;;5011023;28;20042;-86
2023/06/18 11:57:37;;;;;;;6.70;6.05;;;27.70;48.10;;;;;;5009533;28;20033;-86
2023/06/18 12:00:08;;;;;;;7.82;6.13;;;27.90;49.60;;;;;;4995932;28;20573;-87
2023/06/18 12:02:39;;;;;;;7.83;7.03;;;27.90;49.30;;;;;;5022535;28;20172;-87
2023/06/18 12:05:08;;;;;;;6.90;6.28;;;28.00;48.10;;;;;;5008985;28;20034;-88
2023/06/18 12:07:41;;;;;;;6.93;5.97;;;28.00;47.20;;;;;;5006138;28;20025;-87
2023/06/18 12:10:09;;;;;;;9.50;8.35;;;27.90;48.10;;;;;;5022203;28;20038;-87
2023/06/18 12:13:06;;;;;;;7.95;6.40;;;27.90;52.40;;;;;;5000660;28;20764;-86
2023/06/18 12:15:39;;;;;;;7.43;6.10;;;28.10;47.50;;;;;;5014266;28;20112;-86
2023/06/18 12:18:18;;;;;;;8.70;6.47;;;28.00;47.40;;;;;;5010227;28;20030;-87
2023/06/18 12:20:44;;;;;;;7.25;6.55;;;28.30;48.90;;;;;;5027383;28;20029;-86
2023/06/18 12:23:14;;;;;;;8.68;6.28;;;28.30;51.20;;;;;;4994103;28;20040;-87
2023/06/18 12:25:40;;;;;;;6.25;5.65;;;28.30;52.10;;;;;;5000980;28;20048;-86
2023/06/18 12:28:06;;;;;;;10.70;6.30;;;28.30;52.60;;;;;;4987681;28;20121;-86
2023/06/18 12:30:36;;;;;;;9.05;6.18;;;28.60;48.80;;;;;;5011446;28;20025;-87
2023/06/18 12:33:12;;;;;;;6.53;5.93;;;28.70;47.40;;;;;;5000970;28;20112;-86
2023/06/18 12:35:44;;;;;;;10.25;5.90;;;29.20;48.00;;;;;;5021682;28;20083;-86
2023/06/18 12:38:10;;;;;;;5.90;5.40;;;29.50;45.60;;;;;;5012000;28;20021;-87
2023/06/18 12:40:56;;;;;;;6.65;5.95;;;29.80;45.70;;;;;;5013189;28;20025;-88
2023/06/18 12:43:25;;;;;;;7.03;6.22;;;29.90;42.70;;;;;;4995673;28;20034;-86